Weather at National City Airport [CLOSED]

Public forecast

Using degrees Fahrenheit for public forecast. Weather courtesy of forecast.io.

Closest aviation weather report (METAR) to National City Airport

Closest report is Naval Outlying Field Imperial Beach (Ream Field), 5.1 nm (9.5 km) S.

2024/07/18 16:53 (retrieved 1 hour ago)

KNRS 181653Z 29006KT 9SM BKN010 23/18 A3000 RMK AO2 SLP157 T02280183

Closest aviation forecast (TAF) to National City Airport

Closest forecast is San Diego International Airport, 6.7 nm (12.5 km) NW.

2024/07/18 16:39 Ammendment (retrieved 1 hour ago)

TAF AMD KSAN 181537Z 1816/1918 VRB04KT P6SM OVC013 FM181700 VRB04KT P6SM SCT015 FM181900 25008KT P6SM SCT150 FM190300 VRB04KT P6SM SCT013 FM190600 VRB04KT P6SM BKN012 FM191700 VRB04KT P6SM SCT017